TimeEDT,TemperatureF,Dew PointF,Humidity,Sea Level PressureIn,VisibilityMPH,Wind Direction,Wind SpeedMPH,Gust SpeedMPH,PrecipitationIn,Events,Conditions,WindDirDegrees,DateUTC
12:14 AM,57.6,55.4,92,30.14,10.0,Calm,Calm,-,N/A,,Clear,0,2014-08-09 04:14:00
12:34 AM,55.6,53.2,92,30.14,10.0,Calm,Calm,-,N/A,,Clear,0,2014-08-09 04:34:00
1:14 AM,55.9,53.8,92,30.15,10.0,Calm,Calm,-,N/A,,Clear,0,2014-08-09 05:14:00
1:33 AM,55.0,52.9,92,30.15,10.0,NW,3.5,-,N/A,,Clear,320,2014-08-09 05:33:00
1:53 AM,55.2,53.1,92,30.15,10.0,Calm,Calm,-,N/A,,Clear,0,2014-08-09 05:53:00
2:14 AM,54.0,52.0,93,30.15,7.0,Calm,Calm,-,N/A,,Clear,0,2014-08-09 06:14:00
2:33 AM,53.6,51.4,92,30.15,7.0,Calm,Calm,-,N/A,,Clear,0,2014-08-09 06:33:00
2:54 AM,53.6,51.6,93,30.15,7.0,Calm,Calm,-,N/A,,Clear,0,2014-08-09 06:54:00
3:14 AM,53.8,52.0,94,30.14,7.0,Calm,Calm,-,N/A,,Clear,0,2014-08-09 07:14:00
3:33 AM,53.1,51.1,93,30.14,7.0,Calm,Calm,-,N/A,,Clear,0,2014-08-09 07:33:00
3:54 AM,52.9,51.1,94,30.14,7.0,Calm,Calm,-,N/A,,Clear,0,2014-08-09 07:54:00
4:14 AM,52.7,50.5,92,30.15,7.0,Calm,Calm,-,N/A,,Clear,0,2014-08-09 08:14:00
4:33 AM,51.8,50.0,94,30.15,7.0,Calm,Calm,-,N/A,,Clear,0,2014-08-09 08:33:00
4:54 AM,51.8,50.0,94,30.16,7.0,Calm,Calm,-,N/A,,Clear,0,2014-08-09 08:54:00
5:14 AM,52.0,50.2,94,30.16,10.0,Calm,Calm,-,N/A,,Clear,0,2014-08-09 09:14:00
5:33 AM,50.9,49.1,94,30.17,5.0,Calm,Calm,-,N/A,,Clear,0,2014-08-09 09:33:00
5:53 AM,50.2,48.4,94,30.17,5.0,Calm,Calm,-,N/A,,Clear,0,2014-08-09 09:53:00
6:13 AM,50.9,49.1,94,30.17,5.0,Calm,Calm,-,N/A,,Clear,0,2014-08-09 10:13:00
6:34 AM,50.7,48.9,94,30.17,7.0,Calm,Calm,-,N/A,,Clear,0,2014-08-09 10:34:00
6:53 AM,50.9,49.1,94,30.17,7.0,Calm,Calm,-,N/A,,Clear,0,2014-08-09 10:53:00
7:13 AM,51.1,49.3,94,30.17,7.0,Calm,Calm,-,N/A,,Clear,0,2014-08-09 11:13:00
7:34 AM,53.1,51.3,94,30.17,10.0,Calm,Calm,-,N/A,,Clear,0,2014-08-09 11:34:00
7:53 AM,55.0,53.1,93,30.17,7.0,Calm,Calm,-,N/A,,Clear,0,2014-08-09 11:53:00
8:14 AM,56.1,54.0,92,30.17,10.0,Calm,Calm,-,N/A,,Clear,0,2014-08-09 12:14:00
8:33 AM,58.5,56.1,92,30.17,10.0,Calm,Calm,-,N/A,,Clear,0,2014-08-09 12:33:00
8:54 AM,61.5,57.7,87,30.17,10.0,Calm,Calm,-,N/A,,Clear,0,2014-08-09 12:54:00
9:13 AM,64.0,59.7,86,30.17,10.0,Calm,Calm,-,N/A,,Clear,0,2014-08-09 13:13:00
9:33 AM,66.6,61.0,82,30.18,10.0,Calm,Calm,-,N/A,,Clear,0,2014-08-09 13:33:00
9:53 AM,68.7,61.7,78,30.18,10.0,Calm,Calm,-,N/A,,Clear,0,2014-08-09 13:53:00
10:14 AM,71.1,59.9,68,30.17,10.0,Calm,Calm,-,N/A,,Clear,0,2014-08-09 14:14:00
10:34 AM,72.0,59.0,64,30.17,10.0,NE,4.6,-,N/A,,Clear,50,2014-08-09 14:34:00
10:53 AM,73.2,58.6,60,30.18,10.0,East,4.6,-,N/A,,Clear,90,2014-08-09 14:53:00
11:13 AM,73.9,58.3,58,30.18,10.0,NE,6.9,-,N/A,,Clear,40,2014-08-09 15:13:00
11:33 AM,75.0,57.7,55,30.18,10.0,East,9.2,-,N/A,,Clear,90,2014-08-09 15:33:00
11:53 AM,75.9,56.8,51,30.18,10.0,East,6.9,-,N/A,,Scattered Clouds,100,2014-08-09 15:53:00
12:13 PM,76.6,55.9,49,30.18,10.0,NE,9.2,-,N/A,,Scattered Clouds,50,2014-08-09 16:13:00
12:33 PM,77.2,54.1,45,30.18,10.0,NE,9.2,-,N/A,,Clear,50,2014-08-09 16:33:00
1:13 PM,77.4,54.3,45,30.17,10.0,East,9.2,16.1,N/A,,Clear,90,2014-08-09 17:13:00
1:33 PM,78.1,53.8,43,30.17,10.0,East,9.2,-,N/A,,Clear,90,2014-08-09 17:33:00
1:54 PM,78.4,54.7,44,30.17,10.0,East,11.5,16.1,N/A,,Clear,80,2014-08-09 17:54:00
2:13 PM,77.9,53.8,43,30.17,10.0,ENE,11.5,16.1,N/A,,Clear,60,2014-08-09 18:13:00
2:33 PM,78.6,53.1,41,30.17,10.0,East,10.4,-,N/A,,Clear,90,2014-08-09 18:33:00
2:53 PM,78.1,53.1,42,30.16,5.0,ENE,12.7,17.3,N/A,,Haze,70,2014-08-09 18:53:00
3:14 PM,78.4,54.9,44,30.15,10.0,ENE,9.2,-,N/A,,Clear,70,2014-08-09 19:14:00
3:34 PM,78.6,55.4,45,30.15,10.0,East,13.8,18.4,N/A,,Clear,100,2014-08-09 19:34:00
3:54 PM,78.4,55.6,45,30.14,10.0,East,9.2,-,N/A,,Clear,80,2014-08-09 19:54:00
4:14 PM,78.6,56.5,46,30.14,10.0,East,9.2,-,N/A,,Clear,100,2014-08-09 20:14:00
4:53 PM,78.6,56.8,47,30.13,10.0,NE,9.2,-,N/A,,Clear,50,2014-08-09 20:53:00
5:14 PM,78.3,57.7,49,30.13,10.0,ENE,5.8,-,N/A,,Clear,70,2014-08-09 21:14:00
5:53 PM,77.7,57.4,49,30.13,10.0,East,6.9,-,N/A,,Clear,90,2014-08-09 21:53:00
6:13 PM,77.2,57.4,50,30.13,10.0,East,8.1,-,N/A,,Scattered Clouds,80,2014-08-09 22:13:00
6:33 PM,77.0,57.6,51,30.12,10.0,ENE,9.2,-,N/A,,Clear,70,2014-08-09 22:33:00
6:54 PM,75.6,57.0,52,30.12,10.0,ENE,6.9,-,N/A,,Clear,60,2014-08-09 22:54:00
7:13 PM,74.8,56.8,53,30.12,10.0,ENE,8.1,-,N/A,,Clear,60,2014-08-09 23:13:00
7:34 PM,73.8,57.4,56,30.12,10.0,ENE,3.5,-,N/A,,Clear,60,2014-08-09 23:34:00
7:54 PM,72.7,57.6,59,30.12,10.0,NE,3.5,-,N/A,,Clear,50,2014-08-09 23:54:00
8:14 PM,70.7,58.1,64,30.12,10.0,NE,4.6,-,N/A,,Clear,40,2014-08-10 00:14:00
8:33 PM,69.1,57.9,68,30.12,10.0,NE,3.5,-,N/A,,Clear,40,2014-08-10 00:33:00
8:53 PM,68.2,57.7,69,30.12,10.0,NE,4.6,-,N/A,,Clear,40,2014-08-10 00:53:00
9:14 PM,66.7,57.2,71,30.12,10.0,Calm,Calm,-,N/A,,Clear,0,2014-08-10 01:14:00
9:54 PM,65.1,57.4,76,30.12,10.0,NE,5.8,-,N/A,,Clear,50,2014-08-10 01:54:00
10:14 PM,64.8,57.4,77,30.12,10.0,ENE,4.6,-,N/A,,Clear,60,2014-08-10 02:14:00
10:34 PM,65.3,57.2,75,30.13,10.0,Calm,Calm,-,N/A,,Clear,0,2014-08-10 02:34:00
11:34 PM,61.0,58.1,90,30.14,10.0,Calm,Calm,-,N/A,,Clear,0,2014-08-10 03:34:00
11:54 PM,59.7,57.0,91,30.13,10.0,Calm,Calm,-,N/A,,Clear,0,2014-08-10 03:54:00